CheckWX is a tool to help pilots better visualize weather data.  It is not intended as a substitute for an official pre-flight weather briefing.

21:01:55 UTC

KPHD METAR
Harry Clever Field Airport
New Philadelphia, Ohio, USA
Current

9 mins ago

KPHD 232053Z AUTO 23010G18KT 10SM FEW038 SCT049 28/19 A2999 RMK AO2 SLP151 60000 T02780189 58006
Observed
May-23 @ 20:53 UTC
Wind
  • 230° at 10 KTS
  • Gusting to 18 KTS
Visibility
10 SM
Flight Rules
VFR
Cloud Levels
  • Few at 3,800' AGL
  • Scattered at 4,900' AGL
Temperature
28°C / 82°F
Dewpoint
19°C / 66°F
Heat Index
29°C / 84°F
Humidity
58%
Altimeter
29.99" Hg
Pressure
1015.62 hPa
Previous

1 hour ago

KPHD 231953Z AUTO 26009G22KT 10SM FEW043 28/18 A3001 RMK AO2 SLP156 T02780183
Observed
May-23 @ 19:53 UTC
Wind
  • 260° at 9 KTS
  • Gusting to 22 KTS
Visibility
10 SM
Flight Rules
VFR
Cloud Levels
  • Few at 4,300' AGL
Temperature
28°C / 82°F
Dewpoint
18°C / 64°F
Heat Index
29°C / 84°F
Humidity
55%
Altimeter
30.01" Hg
Pressure
1016.22 hPa
Previous

2 hours ago

KPHD 231853Z AUTO 23012G24KT 10SM FEW050 28/17 A3002 RMK AO2 PK WND 22026/1818 RAB22E31 SLP159 P0000 T02780167
Observed
May-23 @ 18:53 UTC
Wind
  • 230° at 12 KTS
  • Gusting to 24 KTS
Visibility
10 SM
Flight Rules
VFR
Cloud Levels
  • Few at 5,000' AGL
Temperature
28°C / 82°F
Dewpoint
17°C / 63°F
Heat Index
28°C / 83°F
Humidity
51%
Altimeter
30.02" Hg
Pressure
1016.62 hPa
Current Rain
0.01"